createdAt,value
2019-05-03T00:00:24.151Z,2.40
2019-05-03T00:02:56.429Z,1.70
2019-05-03T00:05:25.721Z,2.10
2019-05-03T00:07:54.127Z,1.40
2019-05-03T00:10:22.337Z,0.77
2019-05-03T00:12:52.755Z,0.90
2019-05-03T00:15:22.268Z,1.13
2019-05-03T00:17:50.090Z,1.13
2019-05-03T00:20:17.732Z,0.90
2019-05-03T00:22:45.434Z,1.47
2019-05-03T00:25:13.096Z,1.67
2019-05-03T00:27:42.647Z,1.67
2019-05-03T00:30:11.990Z,1.13
2019-05-03T00:32:39.837Z,1.83
2019-05-03T00:35:15.318Z,1.23
2019-05-03T00:37:44.549Z,1.13
2019-05-03T00:40:13.999Z,1.23
2019-05-03T00:42:42.361Z,1.77
2019-05-03T00:45:12.521Z,1.10
2019-05-03T00:47:42.008Z,1.63
2019-05-03T00:50:09.480Z,1.57
2019-05-03T00:52:37.201Z,1.27
2019-05-03T00:55:15.698Z,1.07
2019-05-03T00:57:35.356Z,1.07
2019-05-03T01:00:03.309Z,1.27
2019-05-03T01:02:31.840Z,0.93
2019-05-03T01:04:59.739Z,1.27
2019-05-03T01:07:27.631Z,1.60
2019-05-03T01:09:55.388Z,1.20
2019-05-03T01:12:23.141Z,1.13
2019-05-03T01:14:52.576Z,1.07
2019-05-03T01:17:22.271Z,1.77
2019-05-03T01:19:49.846Z,1.73
2019-05-03T01:22:17.504Z,1.50
2019-05-03T01:24:45.124Z,1.67
2019-05-03T01:27:12.823Z,1.17
2019-05-03T01:29:42.367Z,1.37
2019-05-03T01:32:11.489Z,2.40
2019-05-03T01:34:41.492Z,0.97
2019-05-03T01:37:08.785Z,1.13
2019-05-03T01:39:36.541Z,1.17
2019-05-03T01:42:04.243Z,1.80
2019-05-03T01:44:32.706Z,0.93
2019-05-03T01:47:02.365Z,1.13
2019-05-03T01:49:34.389Z,2.13
2019-05-03T01:52:03.693Z,1.73
2019-05-03T01:54:32.146Z,1.33
2019-05-03T01:56:59.924Z,0.73
2019-05-03T01:59:27.721Z,3.50
2019-05-03T02:01:57.116Z,1.13
2019-05-03T02:04:26.412Z,1.63
2019-05-03T02:06:54.184Z,1.43
2019-05-03T02:09:21.840Z,1.30
2019-05-03T02:11:49.532Z,0.87
2019-05-03T02:14:17.284Z,2.40
2019-05-03T02:16:44.977Z,1.87
2019-05-03T02:19:12.750Z,0.90
2019-05-03T02:21:41.654Z,0.90
2019-05-03T02:24:11.624Z,1.80
2019-05-03T02:26:38.975Z,1.77
2019-05-03T02:29:06.645Z,1.27
2019-05-03T02:31:34.424Z,1.50
2019-05-03T02:34:03.568Z,1.53
2019-05-03T02:36:33.759Z,1.47
2019-05-03T02:39:02.879Z,0.90
2019-05-03T02:41:30.478Z,1.23
2019-05-03T02:43:59.899Z,1.27
2019-05-03T02:46:29.196Z,2.00
2019-05-03T02:48:58.490Z,1.73
2019-05-03T02:51:26.425Z,1.20
2019-05-03T02:53:56.801Z,1.53
2019-05-03T02:56:26.032Z,2.00
2019-05-03T02:58:55.537Z,2.00
2019-05-03T03:01:22.412Z,1.30
2019-05-03T03:03:50.595Z,1.57
2019-05-03T03:06:19.405Z,1.53
2019-05-03T03:08:48.590Z,0.97
2019-05-03T03:11:17.790Z,0.80
2019-05-03T03:13:45.975Z,1.53
2019-05-03T03:16:15.870Z,1.07
2019-05-03T03:18:45.662Z,1.77
2019-05-03T03:21:17.266Z,1.87
2019-05-03T03:23:49.417Z,1.53
2019-05-03T03:26:33.252Z,0.90
2019-05-03T03:28:49.489Z,1.63
2019-05-03T03:31:18.788Z,1.50
2019-05-03T03:33:47.524Z,2.30
2019-05-03T03:36:42.332Z,1.40
2019-05-03T03:38:45.892Z,0.97
2019-05-03T03:41:16.329Z,1.20
2019-05-03T03:43:46.308Z,0.73
2019-05-03T03:46:15.822Z,1.83
2019-05-03T03:48:46.032Z,0.87
2019-05-03T03:51:15.610Z,1.33
2019-05-03T03:53:46.531Z,1.37
2019-05-03T03:56:15.977Z,1.60
2019-05-03T03:58:46.485Z,1.53
2019-05-03T04:01:15.653Z,1.10
2019-05-03T04:03:45.751Z,1.60
2019-05-03T04:06:12.178Z,1.60
2019-05-03T04:08:40.144Z,2.57
2019-05-03T04:11:08.010Z,2.37
2019-05-03T04:13:37.455Z,1.60
2019-05-03T04:16:09.341Z,1.50
2019-05-03T04:18:47.893Z,2.33
2019-05-03T04:21:16.190Z,2.63
2019-05-03T04:23:45.862Z,1.57
2019-05-03T04:26:16.341Z,1.50
2019-05-03T04:28:45.350Z,2.93
2019-05-03T04:31:15.068Z,1.37
2019-05-03T04:33:44.830Z,1.70
2019-05-03T04:36:11.789Z,1.53
2019-05-03T04:38:39.557Z,1.90
2019-05-03T04:41:07.322Z,1.13
2019-05-03T04:43:35.759Z,1.90
2019-05-03T04:46:06.612Z,2.20
2019-05-03T04:48:35.848Z,2.00
2019-05-03T04:51:05.862Z,2.13
2019-05-03T04:53:35.816Z,1.33
2019-05-03T04:56:05.836Z,1.70
2019-05-03T04:58:33.017Z,1.87
2019-05-03T05:01:00.827Z,1.87
2019-05-03T05:03:28.583Z,2.60
2019-05-03T05:05:59.555Z,2.13
2019-05-03T05:08:25.854Z,3.17
2019-05-03T05:10:55.825Z,1.43
2019-05-03T05:13:25.062Z,1.97
2019-05-03T05:15:54.730Z,2.70
2019-05-03T05:18:26.483Z,2.30
2019-05-03T05:20:58.904Z,2.27
2019-05-03T05:23:26.683Z,2.40
2019-05-03T05:26:14.329Z,2.03
2019-05-03T05:28:44.780Z,2.83
2019-05-03T05:31:12.825Z,2.53
2019-05-03T05:33:40.573Z,2.30
2019-05-03T05:36:08.271Z,2.57
2019-05-03T05:38:36.112Z,2.13
2019-05-03T05:41:05.278Z,2.73
2019-05-03T05:43:33.161Z,2.37
2019-05-03T05:46:01.044Z,2.13
2019-05-03T05:48:34.881Z,1.77
2019-05-03T05:51:04.440Z,2.07
2019-05-03T05:53:32.311Z,2.50
2019-05-03T05:56:07.472Z,2.00
2019-05-03T05:58:45.523Z,3.90
2019-05-03T06:01:25.008Z,2.70
2019-05-03T06:03:54.968Z,3.33
2019-05-03T06:06:24.398Z,3.80
2019-05-03T06:08:59.791Z,3.83
2019-05-03T06:11:29.067Z,2.40
2019-05-03T06:14:15.280Z,2.83
2019-05-03T06:16:45.169Z,2.67
2019-05-03T06:19:14.752Z,3.00
2019-05-03T06:21:47.709Z,3.50
2019-05-03T06:24:24.904Z,3.33
2019-05-03T06:27:05.043Z,1.63
2019-05-03T06:29:35.071Z,2.93
2019-05-03T06:32:06.621Z,2.37
2019-05-03T06:34:35.477Z,2.83
2019-05-03T06:37:05.317Z,3.40
2019-05-03T06:39:35.133Z,3.33
2019-05-03T06:42:02.501Z,2.23
2019-05-03T06:44:30.253Z,2.87
2019-05-03T06:47:01.024Z,2.67
2019-05-03T06:49:27.321Z,3.20
2019-05-03T06:51:54.994Z,2.80
2019-05-03T06:54:27.731Z,2.90
2019-05-03T06:56:52.364Z,2.63
2019-05-03T06:59:21.657Z,2.37
2019-05-03T07:02:03.155Z,2.20
2019-05-03T07:04:35.528Z,2.40
2019-05-03T07:07:05.209Z,1.87
2019-05-03T07:09:37.511Z,2.90
2019-05-03T07:12:05.330Z,2.07
2019-05-03T07:14:34.938Z,2.13
2019-05-03T07:17:02.457Z,3.03
2019-05-03T07:19:30.208Z,2.10
2019-05-03T07:21:57.897Z,2.43
2019-05-03T07:24:25.661Z,2.50
2019-05-03T07:26:55.134Z,1.83
2019-05-03T07:29:22.770Z,1.77
2019-05-03T07:31:50.589Z,1.67
2019-05-03T07:34:18.336Z,1.90
2019-05-03T07:36:46.105Z,1.47
2019-05-03T07:39:14.525Z,1.43
2019-05-03T07:41:44.532Z,1.73
2019-05-03T07:44:11.853Z,2.33
2019-05-03T07:46:39.639Z,1.47
2019-05-03T07:49:07.500Z,1.60
2019-05-03T07:51:35.261Z,1.43
2019-05-03T07:54:04.675Z,1.47
2019-05-03T07:56:35.599Z,1.60
2019-05-03T07:59:06.331Z,1.07
2019-05-03T08:01:35.973Z,1.63
2019-05-03T08:04:05.437Z,1.97
2019-05-03T08:06:34.605Z,1.27
2019-05-03T08:09:02.525Z,1.43
2019-05-03T08:11:30.294Z,1.00
2019-05-03T08:13:58.065Z,2.03
2019-05-03T08:16:25.865Z,1.37
2019-05-03T08:18:55.620Z,1.60
2019-05-03T08:21:25.046Z,1.43
2019-05-03T08:23:52.281Z,1.33
2019-05-03T08:26:19.954Z,1.03
2019-05-03T08:28:47.603Z,1.13
2019-05-03T08:31:26.034Z,0.70
2019-05-03T08:33:56.860Z,0.77
2019-05-03T08:36:24.899Z,0.20
2019-05-03T08:38:52.720Z,0.40
2019-05-03T08:41:24.987Z,0.10
2019-05-03T08:43:54.867Z,0.30
2019-05-03T08:46:22.158Z,0.10
2019-05-03T08:48:49.803Z,0.30
2019-05-03T08:51:17.577Z,0.40
2019-05-03T08:53:46.037Z,0.50
2019-05-03T08:56:15.645Z,0.20
2019-05-03T08:58:45.092Z,0.40
2019-05-03T09:01:14.726Z,0.60
2019-05-03T09:03:42.135Z,0.87
2019-05-03T09:06:09.890Z,0.90
2019-05-03T09:08:37.580Z,0.77
2019-05-03T09:11:09.646Z,0.43
2019-05-03T09:13:57.319Z,0.40
2019-05-03T09:16:25.303Z,0.13
2019-05-03T09:18:54.763Z,0.53
2019-05-03T09:21:22.532Z,1.23
2019-05-03T09:23:50.289Z,0.50
2019-05-03T09:26:17.997Z,0.73
2019-05-03T09:28:45.689Z,0.30
2019-05-03T09:31:14.872Z,0.73
2019-05-03T09:33:44.954Z,0.97
2019-05-03T09:36:12.188Z,0.60
2019-05-03T09:38:40.585Z,0.67
2019-05-03T09:41:08.647Z,1.03
2019-05-03T09:43:36.391Z,0.90
2019-05-03T09:46:05.144Z,1.23
2019-05-03T09:48:34.709Z,0.80
2019-05-03T09:51:02.668Z,0.60
2019-05-03T09:53:36.683Z,0.70
2019-05-03T09:56:05.468Z,0.88
2019-05-03T09:58:36.442Z,0.30
2019-05-03T10:01:05.218Z,0.50
2019-05-03T10:03:32.156Z,0.60
2019-05-03T10:05:59.924Z,0.97
2019-05-03T10:08:27.792Z,0.40
2019-05-03T10:11:11.130Z,0.50
2019-05-03T10:13:41.859Z,0.53
2019-05-03T10:16:08.493Z,0.40
2019-05-03T10:18:36.689Z,0.47
2019-05-03T10:21:05.317Z,0.50
2019-05-03T10:23:35.691Z,0.67
2019-05-03T10:26:05.099Z,0.57
2019-05-03T10:28:32.956Z,1.07
2019-05-03T10:31:04.963Z,0.33
2019-05-03T10:33:35.352Z,0.73
2019-05-03T10:36:02.401Z,0.57
2019-05-03T10:38:30.182Z,0.43
2019-05-03T10:40:58.046Z,0.40
2019-05-03T10:43:25.667Z,0.60
2019-05-03T10:45:55.666Z,0.30
2019-05-03T10:48:24.616Z,0.77
2019-05-03T10:50:52.256Z,0.73
2019-05-03T10:53:30.992Z,0.47
2019-05-03T10:56:23.005Z,0.43
2019-05-03T10:58:56.177Z,0.57
2019-05-03T11:01:25.530Z,1.13
2019-05-03T11:03:54.545Z,1.00
2019-05-03T11:06:22.385Z,0.50
2019-05-03T11:08:50.145Z,0.37
2019-05-03T11:11:17.920Z,0.30
2019-05-03T11:13:45.677Z,0.77
2019-05-03T11:16:14.799Z,0.93
2019-05-03T11:18:42.635Z,0.10
2019-05-03T11:21:10.418Z,0.40
2019-05-03T11:23:38.290Z,0.30
2019-05-03T11:26:06.051Z,0.93
2019-05-03T11:28:35.393Z,0.50
2019-05-03T11:31:10.598Z,0.67
2019-05-03T11:33:40.105Z,1.00
2019-05-03T11:36:12.269Z,0.73
2019-05-03T11:38:41.692Z,0.70
2019-05-03T11:41:09.351Z,0.30
2019-05-03T11:43:37.000Z,0.40
2019-05-03T11:46:05.441Z,0.90
2019-05-03T11:48:34.855Z,0.50
2019-05-03T11:51:02.873Z,0.63
2019-05-03T11:53:30.632Z,0.60
2019-05-03T11:55:59.568Z,0.83
2019-05-03T11:58:27.468Z,0.70
2019-05-03T12:01:11.913Z,0.87
2019-05-03T12:03:27.843Z,0.83
2019-05-03T12:05:57.133Z,1.07
2019-05-03T12:08:25.308Z,0.53
2019-05-03T12:10:58.601Z,0.77
2019-05-03T12:13:24.568Z,0.83
2019-05-03T12:15:52.404Z,0.50
2019-05-03T12:18:20.349Z,0.50
2019-05-03T12:20:48.819Z,0.50
2019-05-03T12:23:17.682Z,0.30
2019-05-03T12:25:46.603Z,0.87
2019-05-03T12:28:15.362Z,1.50
2019-05-03T12:30:44.895Z,0.83
2019-05-03T12:33:15.118Z,0.87
2019-05-03T12:35:41.974Z,0.70
2019-05-03T12:38:09.770Z,0.63
2019-05-03T12:40:37.485Z,0.33
2019-05-03T12:43:06.068Z,0.80
2019-05-03T12:45:35.425Z,1.17
2019-05-03T12:48:04.872Z,0.40
2019-05-03T12:50:34.644Z,1.30
2019-05-03T12:53:04.537Z,0.43
2019-05-03T12:55:31.805Z,1.07
2019-05-03T12:57:59.573Z,1.07
2019-05-03T13:00:48.443Z,1.23
2019-05-03T13:03:16.101Z,0.60
2019-05-03T13:05:44.980Z,0.97
2019-05-03T13:08:31.288Z,0.43
2019-05-03T13:10:59.066Z,0.50
2019-05-03T13:13:26.813Z,0.97
2019-05-03T13:15:55.026Z,1.00
2019-05-03T13:18:25.097Z,0.80
2019-05-03T13:20:52.355Z,0.87
2019-05-03T13:23:20.028Z,1.03
2019-05-03T13:25:47.800Z,0.80
2019-05-03T13:28:15.472Z,1.20
2019-05-03T13:30:45.120Z,0.40
2019-05-03T13:33:12.528Z,1.00
2019-05-03T13:35:40.297Z,0.47
2019-05-03T13:38:07.960Z,0.60
2019-05-03T13:40:36.015Z,0.73
2019-05-03T13:43:06.373Z,0.87
2019-05-03T13:45:35.368Z,0.60
2019-05-03T13:48:04.832Z,0.90
2019-05-03T13:50:31.802Z,2.00
2019-05-03T13:52:59.586Z,1.17
2019-05-03T13:55:27.548Z,1.50
2019-05-03T13:57:55.312Z,0.90
2019-05-03T14:00:24.663Z,1.20
2019-05-03T14:02:52.586Z,0.80
2019-05-03T14:05:20.556Z,1.30
2019-05-03T14:07:48.429Z,0.53
2019-05-03T14:10:16.716Z,1.00
2019-05-03T14:12:45.480Z,1.13
2019-05-03T14:15:14.908Z,1.23
2019-05-03T14:17:42.748Z,1.40
2019-05-03T14:20:18.005Z,1.60
2019-05-03T14:22:47.307Z,2.27
2019-05-03T14:25:15.251Z,1.43
2019-05-03T14:27:42.945Z,0.90
2019-05-03T14:30:10.805Z,1.67
2019-05-03T14:32:38.577Z,0.97
2019-05-03T14:35:06.554Z,1.47
2019-05-03T14:37:35.364Z,1.60
2019-05-03T14:40:05.062Z,1.63
2019-05-03T14:42:32.813Z,1.87
2019-05-03T14:45:00.682Z,1.37
2019-05-03T14:47:28.435Z,1.77
2019-05-03T14:49:56.213Z,1.80
2019-05-03T14:52:25.207Z,1.47
2019-05-03T14:54:55.027Z,1.10
2019-05-03T14:57:30.367Z,1.30
2019-05-03T15:00:08.270Z,0.80
2019-05-03T15:02:44.413Z,0.80
2019-05-03T15:05:07.165Z,1.77
2019-05-03T15:07:35.205Z,1.20
2019-05-03T15:10:05.516Z,1.20
2019-05-03T15:12:33.045Z,1.10
2019-05-03T15:15:00.913Z,0.80
2019-05-03T15:17:28.642Z,0.90
2019-05-03T15:19:56.293Z,0.73
2019-05-03T15:22:25.317Z,0.50
2019-05-03T15:24:54.561Z,0.87
2019-05-03T15:27:24.621Z,1.93
2019-05-03T15:29:51.798Z,1.73
2019-05-03T15:32:19.494Z,1.00
2019-05-03T15:34:47.335Z,1.10
2019-05-03T15:37:15.101Z,1.03
2019-05-03T15:39:45.003Z,0.40
2019-05-03T15:42:12.175Z,1.50
2019-05-03T15:44:56.628Z,2.70
2019-05-03T15:47:35.047Z,1.27
2019-05-03T15:50:04.747Z,0.70
2019-05-03T15:52:32.214Z,0.67
2019-05-03T15:54:59.984Z,0.60
2019-05-03T15:57:27.728Z,0.43
2019-05-03T15:59:55.723Z,0.67
2019-05-03T16:02:24.661Z,1.17
2019-05-03T16:04:52.559Z,0.47
2019-05-03T16:07:20.344Z,0.77
2019-05-03T16:09:48.212Z,0.53
2019-05-03T16:12:15.983Z,0.57
2019-05-03T16:14:44.554Z,1.00
2019-05-03T16:17:12.429Z,0.47
2019-05-03T16:19:40.305Z,0.77
2019-05-03T16:22:08.074Z,0.83
2019-05-03T16:24:35.837Z,0.73
2019-05-03T16:27:24.713Z,0.63
2019-05-03T16:29:52.324Z,0.30
2019-05-03T16:32:20.130Z,0.07
2019-05-03T16:34:47.887Z,0.57
2019-05-03T16:37:15.662Z,1.00
2019-05-03T16:39:45.208Z,0.83
2019-05-03T16:42:15.235Z,0.60
2019-05-03T16:44:44.311Z,2.17
2019-05-03T16:47:11.607Z,1.10
2019-05-03T16:49:39.289Z,0.57
2019-05-03T16:52:07.061Z,0.37
2019-05-03T16:54:35.007Z,0.63
2019-05-03T16:57:02.899Z,1.10
2019-05-03T16:59:30.769Z,0.30
2019-05-03T17:01:58.638Z,0.37
2019-05-03T17:04:34.551Z,0.60
2019-05-03T17:07:05.523Z,0.97
2019-05-03T17:09:37.825Z,1.90
2019-05-03T17:12:07.608Z,0.70
2019-05-03T17:14:35.405Z,0.30
2019-05-03T17:17:04.639Z,1.00
2019-05-03T17:19:32.556Z,1.23
2019-05-03T17:22:00.289Z,1.33
2019-05-03T17:24:27.974Z,1.60
2019-05-03T17:26:55.657Z,1.43
2019-05-03T17:29:24.604Z,0.83
2019-05-03T17:31:52.408Z,1.00
2019-05-03T17:34:20.159Z,0.83
2019-05-03T17:36:47.842Z,0.87
2019-05-03T17:39:22.883Z,2.13
2019-05-03T17:41:58.119Z,0.60
2019-05-03T17:44:30.371Z,0.83
2019-05-03T17:46:58.036Z,0.33
2019-05-03T17:49:25.699Z,0.60
2019-05-03T17:52:01.053Z,2.70
2019-05-03T17:54:30.471Z,2.83
2019-05-03T17:56:59.870Z,1.40
2019-05-03T17:59:29.173Z,0.70
2019-05-03T18:02:15.405Z,0.50
2019-05-03T18:05:00.935Z,1.00
2019-05-03T18:07:45.732Z,0.93
2019-05-03T18:10:15.207Z,1.20
2019-05-03T18:12:43.193Z,1.37
2019-05-03T18:15:11.065Z,1.53
2019-05-03T18:17:38.827Z,0.77
2019-05-03T18:20:06.698Z,0.83
2019-05-03T18:22:34.352Z,0.93
2019-05-03T18:25:02.131Z,0.63
2019-05-03T18:27:29.878Z,0.83
2019-05-03T18:29:57.663Z,1.07
2019-05-03T18:32:25.426Z,1.00
2019-05-03T18:34:54.604Z,1.47
2019-05-03T18:37:24.517Z,0.63
2019-05-03T18:39:52.343Z,0.60
2019-05-03T18:42:30.802Z,0.60
2019-05-03T18:45:04.629Z,0.40
2019-05-03T18:47:34.303Z,0.80
2019-05-03T18:50:01.798Z,0.30
2019-05-03T18:52:29.676Z,0.77
2019-05-03T18:54:57.437Z,0.17
2019-05-03T18:57:25.598Z,1.00
2019-05-03T18:59:55.447Z,0.37
2019-05-03T19:02:24.261Z,0.67
2019-05-03T19:04:54.645Z,0.67
2019-05-03T19:07:24.165Z,0.53
2019-05-03T19:10:02.362Z,0.80
2019-05-03T19:12:35.698Z,1.03
2019-05-03T19:15:05.319Z,0.50
2019-05-03T19:17:40.800Z,0.30
2019-05-03T19:20:10.226Z,0.50
2019-05-03T19:22:38.094Z,0.50
2019-05-03T19:25:06.987Z,0.87
2019-05-03T19:27:34.715Z,1.03
2019-05-03T19:30:02.392Z,0.93
2019-05-03T19:32:30.285Z,1.03
2019-05-03T19:34:57.937Z,0.53
2019-05-03T19:37:26.049Z,1.40
2019-05-03T19:39:55.262Z,0.70
2019-05-03T19:42:26.949Z,1.17
2019-05-03T19:44:52.514Z,1.40
2019-05-03T19:47:20.361Z,1.10
2019-05-03T19:49:48.104Z,2.10
2019-05-03T19:52:17.447Z,2.93
2019-05-03T19:54:45.198Z,1.97
2019-05-03T19:57:15.188Z,3.83
2019-05-03T19:59:56.334Z,1.20
2019-05-03T20:02:24.537Z,1.03
2019-05-03T20:05:10.554Z,1.03
2019-05-03T20:07:46.110Z,1.20
2019-05-03T20:10:14.671Z,1.73
2019-05-03T20:12:43.378Z,1.43
2019-05-03T20:15:11.009Z,0.40
2019-05-03T20:17:38.727Z,0.73
2019-05-03T20:20:06.887Z,0.60
2019-05-03T20:22:35.109Z,0.60
2019-05-03T20:25:04.658Z,1.10
2019-05-03T20:27:32.529Z,0.70
2019-05-03T20:30:00.306Z,0.50
2019-05-03T20:32:28.174Z,0.67
2019-05-03T20:34:55.819Z,1.00
2019-05-03T20:37:25.150Z,1.17
2019-05-03T20:39:54.510Z,0.90
2019-05-03T20:42:32.954Z,1.00
2019-05-03T20:45:00.691Z,1.13
2019-05-03T20:47:30.228Z,0.87
2019-05-03T20:50:16.539Z,2.00
2019-05-03T20:52:44.508Z,2.37
2019-05-03T20:55:12.880Z,1.90
2019-05-03T20:57:40.528Z,1.70
2019-05-03T21:00:08.820Z,1.53
2019-05-03T21:02:37.103Z,1.33
2019-05-03T21:05:08.043Z,1.40
2019-05-03T21:07:35.819Z,1.00
2019-05-03T21:10:06.076Z,1.70
2019-05-03T21:12:34.672Z,0.87
2019-05-03T21:15:04.949Z,0.60
2019-05-03T21:17:46.549Z,1.23
2019-05-03T21:20:34.698Z,0.83
2019-05-03T21:23:02.229Z,0.83
2019-05-03T21:25:31.638Z,1.17
2019-05-03T21:27:59.325Z,0.93
2019-05-03T21:30:27.068Z,1.57
2019-05-03T21:32:54.929Z,0.70
2019-05-03T21:35:22.702Z,1.50
2019-05-03T21:37:50.485Z,1.03
2019-05-03T21:40:18.444Z,0.80
2019-05-03T21:42:46.083Z,0.83
2019-05-03T21:45:15.159Z,1.00
2019-05-03T21:47:54.712Z,0.90
2019-05-03T21:50:24.858Z,1.10
2019-05-03T21:52:54.764Z,1.37
2019-05-03T21:55:24.757Z,0.57
2019-05-03T21:57:52.564Z,0.60
2019-05-03T22:00:20.643Z,1.03
2019-05-03T22:02:48.333Z,1.23
2019-05-03T22:05:16.512Z,1.23
2019-05-03T22:07:44.480Z,0.70
2019-05-03T22:10:12.527Z,1.27
2019-05-03T22:12:40.295Z,0.70
2019-05-03T22:15:26.334Z,0.83
2019-05-03T22:18:02.239Z,1.10
2019-05-03T22:20:40.469Z,1.00
2019-05-03T22:23:09.964Z,0.93
2019-05-03T22:25:39.155Z,0.70
2019-05-03T22:28:07.152Z,0.37
2019-05-03T22:30:35.245Z,1.13
2019-05-03T22:33:02.983Z,0.93
2019-05-03T22:35:30.675Z,1.43
2019-05-03T22:37:58.323Z,1.40
2019-05-03T22:40:26.289Z,1.27
2019-05-03T22:42:53.915Z,0.73
2019-05-03T22:45:21.798Z,0.77
2019-05-03T22:47:49.552Z,0.47
2019-05-03T22:50:17.343Z,1.33
2019-05-03T22:52:45.511Z,1.10
2019-05-03T22:55:15.260Z,0.60
2019-05-03T22:57:42.876Z,0.97
2019-05-03T23:00:11.052Z,0.43
2019-05-03T23:02:38.777Z,0.83
2019-05-03T23:05:06.584Z,0.40
2019-05-03T23:07:37.035Z,0.70
2019-05-03T23:10:05.125Z,1.23
2019-05-03T23:12:34.681Z,0.77
2019-05-03T23:15:04.393Z,1.03
2019-05-03T23:17:31.661Z,1.90
2019-05-03T23:20:01.069Z,1.47
2019-05-03T23:22:30.360Z,0.97
2019-05-03T23:24:58.016Z,1.27
2019-05-03T23:27:25.731Z,0.70
2019-05-03T23:29:55.210Z,0.50
2019-05-03T23:32:24.507Z,0.30
2019-05-03T23:34:54.276Z,0.40
2019-05-03T23:37:21.874Z,0.90
2019-05-03T23:39:49.665Z,0.37
2019-05-03T23:42:17.405Z,2.00
2019-05-03T23:44:45.617Z,0.57
2019-05-03T23:47:27.280Z,0.53
2019-05-03T23:49:55.360Z,0.53
2019-05-03T23:52:27.827Z,0.50
2019-05-03T23:55:03.075Z,0.73
2019-05-03T23:57:30.830Z,0.77
2019-05-03T23:59:58.701Z,0.40
